createdAt,value
2022-11-18T00:00:20.820Z,26.03
2022-11-18T00:02:20.914Z,26.08
2022-11-18T00:04:20.889Z,26.08
2022-11-18T00:06:20.833Z,25.99
2022-11-18T00:08:20.865Z,26.08
2022-11-18T00:10:20.739Z,26.07
2022-11-18T00:12:20.802Z,26.00
2022-11-18T00:14:21.298Z,26.00
2022-11-18T00:16:20.881Z,26.08
2022-11-18T00:18:20.930Z,26.00
2022-11-18T00:20:20.852Z,26.02
2022-11-18T00:22:24.317Z,26.05
2022-11-18T00:24:20.975Z,25.99
2022-11-18T00:26:20.877Z,25.97
2022-11-18T00:28:20.803Z,26.08
2022-11-18T00:30:20.905Z,26.02
2022-11-18T00:32:20.798Z,25.93
2022-11-18T00:34:20.848Z,26.08
2022-11-18T00:36:20.878Z,25.99
2022-11-18T00:38:20.847Z,26.00
2022-11-18T00:40:20.874Z,25.99
2022-11-18T00:42:20.842Z,26.00
2022-11-18T00:44:20.906Z,25.99
2022-11-18T00:46:20.767Z,25.95
2022-11-18T00:48:20.810Z,25.99
2022-11-18T00:50:20.820Z,25.93
2022-11-18T00:52:20.779Z,25.90
2022-11-18T00:54:20.906Z,25.93
2022-11-18T00:56:20.730Z,25.94
2022-11-18T00:58:20.839Z,26.02
2022-11-18T01:00:20.906Z,25.94
2022-11-18T01:02:20.890Z,25.93
2022-11-18T01:04:20.782Z,25.95
2022-11-18T01:06:20.854Z,26.00
2022-11-18T01:08:20.781Z,25.91
2022-11-18T01:10:20.939Z,25.93
2022-11-18T01:12:20.912Z,25.96
2022-11-18T01:14:20.757Z,25.95
2022-11-18T01:16:20.819Z,25.95
2022-11-18T01:18:20.929Z,25.88
2022-11-18T01:20:20.912Z,25.93
2022-11-18T01:22:20.908Z,25.94
2022-11-18T01:24:20.806Z,25.97
2022-11-18T01:26:20.933Z,25.93
2022-11-18T01:28:23.936Z,25.93
2022-11-18T01:30:20.916Z,25.93
2022-11-18T01:32:25.582Z,25.89
2022-11-18T01:34:20.857Z,25.77
2022-11-18T01:36:20.939Z,25.80
2022-11-18T01:38:20.969Z,25.65
2022-11-18T01:40:20.782Z,25.65
2022-11-18T01:42:20.962Z,25.75
2022-11-18T01:44:20.843Z,25.84
2022-11-18T01:46:20.938Z,25.91
2022-11-18T01:48:20.839Z,25.90
2022-11-18T01:50:20.732Z,25.86
2022-11-18T01:52:20.958Z,25.88
2022-11-18T01:54:20.880Z,25.85
2022-11-18T01:56:20.958Z,25.99
2022-11-18T01:58:20.963Z,25.93
2022-11-18T02:00:20.919Z,25.91
2022-11-18T02:02:20.890Z,25.94
2022-11-18T02:04:20.864Z,25.92
2022-11-18T02:06:20.979Z,25.98
2022-11-18T02:08:20.983Z,25.94
2022-11-18T02:10:20.927Z,25.97
2022-11-18T02:12:21.028Z,25.93
2022-11-18T02:14:20.946Z,26.06
2022-11-18T02:16:21.000Z,25.99
2022-11-18T02:18:20.994Z,26.04
2022-11-18T02:20:20.854Z,25.97
2022-11-18T02:22:20.891Z,26.07
2022-11-18T02:24:20.995Z,25.99
2022-11-18T02:26:20.996Z,25.99
2022-11-18T02:28:21.075Z,25.91
2022-11-18T02:30:20.894Z,26.00
2022-11-18T02:32:20.995Z,26.00
2022-11-18T02:34:21.023Z,25.99
2022-11-18T02:36:21.016Z,25.97
2022-11-18T02:38:20.999Z,26.02
2022-11-18T02:40:21.024Z,26.02
2022-11-18T02:42:20.880Z,26.08
2022-11-18T02:44:20.998Z,26.00
2022-11-18T02:46:20.920Z,26.00
2022-11-18T02:48:21.040Z,26.04
2022-11-18T02:50:21.018Z,26.03
2022-11-18T02:52:20.938Z,26.00
2022-11-18T02:54:21.039Z,26.08
2022-11-18T02:56:21.033Z,26.08
2022-11-18T02:58:20.933Z,26.08
2022-11-18T03:00:21.023Z,26.02
2022-11-18T03:02:21.007Z,26.03
2022-11-18T03:04:21.027Z,25.99
2022-11-18T03:06:21.048Z,26.00
2022-11-18T03:08:20.990Z,26.09
2022-11-18T03:10:21.044Z,26.02
2022-11-18T03:12:21.040Z,26.02
2022-11-18T03:14:21.033Z,26.03
2022-11-18T03:16:21.059Z,26.00
2022-11-18T03:18:21.025Z,26.02
2022-11-18T03:20:21.086Z,25.99
2022-11-18T03:22:21.027Z,26.08
2022-11-18T03:24:20.937Z,25.95
2022-11-18T03:26:21.068Z,25.99
2022-11-18T03:28:21.080Z,26.09
2022-11-18T03:30:20.935Z,25.99
2022-11-18T03:32:20.972Z,26.00
2022-11-18T03:34:21.084Z,25.99
2022-11-18T03:36:21.081Z,25.97
2022-11-18T03:38:21.006Z,25.92
2022-11-18T03:40:21.038Z,25.93
2022-11-18T03:42:21.065Z,26.07
2022-11-18T03:44:21.092Z,26.04
2022-11-18T03:46:21.087Z,25.96
2022-11-18T03:48:21.080Z,26.06
2022-11-18T03:50:21.061Z,25.97
2022-11-18T03:52:21.085Z,26.08
2022-11-18T03:54:20.999Z,25.99
2022-11-18T03:56:21.086Z,26.07
2022-11-18T03:58:21.092Z,25.99
2022-11-18T04:00:21.104Z,26.03
2022-11-18T04:02:21.132Z,25.91
2022-11-18T04:04:20.986Z,26.05
2022-11-18T04:06:21.105Z,25.93
2022-11-18T04:08:21.125Z,25.95
2022-11-18T04:10:21.034Z,26.00
2022-11-18T04:12:21.016Z,25.99
2022-11-18T04:14:21.132Z,26.04
2022-11-18T04:16:21.102Z,26.07
2022-11-18T04:18:20.939Z,26.03
2022-11-18T04:20:21.118Z,26.07
2022-11-18T04:22:21.124Z,26.09
2022-11-18T04:24:21.075Z,26.08
2022-11-18T04:26:21.004Z,26.04
2022-11-18T04:28:21.145Z,25.84
2022-11-18T04:30:21.127Z,25.97
2022-11-18T04:32:21.110Z,26.08
2022-11-18T04:34:21.128Z,26.04
2022-11-18T04:36:21.134Z,26.07
2022-11-18T04:38:22.188Z,26.09
2022-11-18T04:40:21.053Z,26.02
2022-11-18T04:42:21.018Z,26.02
2022-11-18T04:44:21.189Z,25.99
2022-11-18T04:46:21.139Z,26.02
2022-11-18T04:48:21.159Z,25.99
2022-11-18T04:50:21.069Z,26.00
2022-11-18T04:52:21.146Z,25.99
2022-11-18T04:54:20.992Z,26.00
2022-11-18T04:56:21.311Z,26.09
2022-11-18T04:58:21.142Z,26.08
2022-11-18T05:00:21.168Z,26.07
2022-11-18T05:02:21.149Z,26.07
2022-11-18T05:04:21.183Z,25.99
2022-11-18T05:06:21.159Z,26.09
2022-11-18T05:08:21.175Z,26.02
2022-11-18T05:10:21.186Z,26.03
2022-11-18T05:12:21.162Z,26.03
2022-11-18T05:14:21.023Z,26.07
2022-11-18T05:16:21.104Z,26.08
2022-11-18T05:18:21.190Z,26.08
2022-11-18T05:20:21.079Z,25.99
2022-11-18T05:22:21.045Z,26.02
2022-11-18T05:24:21.177Z,26.07
2022-11-18T05:26:21.114Z,26.07
2022-11-18T05:28:21.121Z,26.04
2022-11-18T05:30:21.099Z,26.07
2022-11-18T05:32:21.090Z,25.99
2022-11-18T05:34:21.222Z,26.08
2022-11-18T05:36:21.051Z,26.03
2022-11-18T05:38:21.205Z,26.04
2022-11-18T05:40:21.182Z,26.04
2022-11-18T05:42:21.214Z,26.07
2022-11-18T05:44:21.162Z,25.99
2022-11-18T05:46:21.234Z,26.07
2022-11-18T05:48:21.117Z,26.03
2022-11-18T05:50:22.188Z,26.08
2022-11-18T05:52:21.224Z,26.03
2022-11-18T05:54:21.538Z,26.07
2022-11-18T05:56:21.048Z,25.99
2022-11-18T05:58:21.211Z,26.08
2022-11-18T06:00:21.210Z,26.00
2022-11-18T06:02:21.213Z,26.07
2022-11-18T06:04:21.227Z,26.00
2022-11-18T06:06:21.312Z,26.08
2022-11-18T06:08:21.303Z,25.99
2022-11-18T06:10:21.228Z,26.03
2022-11-18T06:12:21.231Z,25.95
2022-11-18T06:14:21.269Z,26.02
2022-11-18T06:16:21.229Z,25.96
2022-11-18T06:18:21.243Z,25.97
2022-11-18T06:20:21.238Z,25.97
2022-11-18T06:22:21.132Z,25.01
2022-11-18T06:24:21.210Z,24.96
2022-11-18T06:26:21.203Z,25.00
2022-11-18T06:28:21.278Z,24.87
2022-11-18T06:30:21.247Z,24.83
2022-11-18T06:32:21.260Z,24.73
2022-11-18T06:34:21.272Z,24.69
2022-11-18T06:36:21.080Z,24.71
2022-11-18T06:38:21.113Z,24.67
2022-11-18T06:40:21.257Z,24.66
2022-11-18T06:42:21.254Z,24.67
2022-11-18T06:44:21.224Z,24.57
2022-11-18T06:46:21.271Z,24.62
2022-11-18T06:48:21.279Z,24.64
2022-11-18T06:50:21.182Z,24.53
2022-11-18T06:52:21.251Z,24.62
2022-11-18T06:54:21.277Z,24.67
2022-11-18T06:56:21.268Z,24.51
2022-11-18T06:58:21.256Z,24.44
2022-11-18T07:00:21.275Z,24.41
2022-11-18T07:02:21.284Z,24.37
2022-11-18T07:04:21.315Z,24.34
2022-11-18T07:06:21.295Z,24.24
2022-11-18T07:08:21.289Z,24.21
2022-11-18T07:10:21.302Z,24.22
2022-11-18T07:12:21.231Z,24.33
2022-11-18T07:14:21.323Z,24.26
2022-11-18T07:16:21.333Z,24.50
2022-11-18T07:18:21.293Z,24.48
2022-11-18T07:20:21.301Z,24.48
2022-11-18T07:22:21.292Z,24.38
2022-11-18T07:24:21.293Z,24.43
2022-11-18T07:26:21.212Z,24.48
2022-11-18T07:28:21.277Z,24.52
2022-11-18T07:30:21.356Z,24.43
2022-11-18T07:32:21.329Z,24.52
2022-11-18T07:34:21.267Z,24.47
2022-11-18T07:36:21.306Z,24.48
2022-11-18T07:38:21.320Z,24.49
2022-11-18T07:40:21.324Z,24.52
2022-11-18T07:42:21.261Z,24.52
2022-11-18T07:44:21.375Z,24.55
2022-11-18T07:46:21.351Z,24.59
2022-11-18T07:48:21.333Z,24.58
2022-11-18T07:50:21.329Z,24.58
2022-11-18T07:52:21.347Z,24.66
2022-11-18T07:54:21.350Z,24.62
2022-11-18T07:56:21.267Z,24.62
2022-11-18T07:58:21.346Z,24.66
2022-11-18T08:00:21.288Z,24.75
2022-11-18T08:02:21.341Z,24.82
2022-11-18T08:04:21.321Z,24.76
2022-11-18T08:06:21.354Z,24.82
2022-11-18T08:08:21.389Z,24.90
2022-11-18T08:10:21.355Z,25.01
2022-11-18T08:12:21.178Z,25.05
2022-11-18T08:14:21.379Z,25.11
2022-11-18T08:16:21.372Z,25.08
2022-11-18T08:18:21.370Z,25.07
2022-11-18T08:20:21.392Z,25.13
2022-11-18T08:22:21.380Z,25.24
2022-11-18T08:24:21.296Z,25.35
2022-11-18T08:26:21.381Z,25.38
2022-11-18T08:28:21.429Z,25.32
2022-11-18T08:30:21.368Z,25.35
2022-11-18T08:32:21.399Z,25.38
2022-11-18T08:34:21.325Z,25.52
2022-11-18T08:36:21.438Z,25.78
2022-11-18T08:38:21.394Z,25.84
2022-11-18T08:40:21.530Z,25.88
2022-11-18T08:42:24.362Z,26.06
2022-11-18T08:44:21.322Z,25.91
2022-11-18T08:46:21.303Z,25.92
2022-11-18T08:48:21.309Z,25.95
2022-11-18T08:50:21.394Z,25.84
2022-11-18T08:52:21.403Z,25.90
2022-11-18T08:54:21.439Z,25.85
2022-11-18T08:56:21.422Z,25.95
2022-11-18T08:58:21.411Z,25.89
2022-11-18T09:00:21.485Z,25.90
2022-11-18T09:02:21.431Z,25.90
2022-11-18T09:04:21.356Z,25.86
2022-11-18T09:06:21.457Z,26.00
2022-11-18T09:08:21.426Z,25.96
2022-11-18T09:10:21.454Z,25.86
2022-11-18T09:12:21.461Z,25.91
2022-11-18T09:15:11.720Z,25.88
2022-11-18T09:16:26.420Z,25.83
2022-11-18T09:18:21.400Z,25.89
2022-11-18T09:20:21.446Z,25.83
2022-11-18T09:22:21.442Z,25.83
2022-11-18T09:24:21.576Z,25.86
2022-11-18T09:26:21.297Z,25.86
2022-11-18T09:28:21.448Z,25.89
2022-11-18T09:30:21.384Z,25.96
2022-11-18T09:32:21.462Z,25.95
2022-11-18T09:34:21.466Z,25.95
2022-11-18T09:36:21.512Z,25.90
2022-11-18T09:38:21.467Z,25.82
2022-11-18T09:40:21.466Z,25.92
2022-11-18T09:42:21.363Z,25.88
2022-11-18T09:44:21.463Z,25.91
2022-11-18T09:46:21.388Z,25.95
2022-11-18T09:48:21.371Z,25.89
2022-11-18T09:50:47.044Z,25.86
2022-11-18T09:52:21.531Z,25.93
2022-11-18T09:54:21.405Z,25.91
2022-11-18T09:56:21.433Z,25.93
2022-11-18T09:58:21.355Z,25.96
2022-11-18T10:00:21.578Z,25.78
2022-11-18T10:02:21.480Z,25.65
2022-11-18T10:04:21.451Z,25.58
2022-11-18T10:06:23.727Z,25.59
2022-11-18T10:08:21.426Z,25.64
2022-11-18T10:10:21.495Z,25.52
2022-11-18T10:12:21.493Z,25.61
2022-11-18T10:14:21.498Z,25.52
2022-11-18T10:16:21.567Z,25.58
2022-11-18T10:18:44.979Z,25.74
2022-11-18T10:20:21.497Z,25.91
2022-11-18T10:22:24.663Z,25.84
2022-11-18T10:24:21.599Z,25.83
2022-11-18T10:26:21.446Z,25.79
2022-11-18T10:28:21.384Z,25.91
2022-11-18T10:30:21.545Z,26.06
2022-11-18T10:32:21.521Z,26.06
2022-11-18T10:34:21.413Z,25.89
2022-11-18T10:36:21.720Z,25.99
2022-11-18T10:38:21.530Z,25.86
2022-11-18T10:40:21.519Z,25.80
2022-11-18T10:42:21.524Z,25.75
2022-11-18T10:44:21.434Z,25.65
2022-11-18T10:46:21.538Z,25.59
2022-11-18T10:48:21.551Z,25.52
2022-11-18T10:50:21.531Z,25.52
2022-11-18T10:52:21.551Z,25.64
2022-11-18T10:54:21.401Z,25.97
2022-11-18T10:56:21.577Z,25.92
2022-11-18T10:58:21.610Z,25.99
2022-11-18T11:00:21.485Z,25.74
2022-11-18T11:02:21.588Z,25.63
2022-11-18T11:04:21.574Z,25.62
2022-11-18T11:06:21.570Z,25.80
2022-11-18T11:08:36.389Z,25.86
2022-11-18T11:10:21.526Z,25.72
2022-11-18T11:12:21.578Z,25.75
2022-11-18T11:14:22.006Z,25.60
2022-11-18T11:16:26.025Z,25.65
2022-11-18T11:18:21.608Z,25.65
2022-11-18T11:20:21.573Z,25.65
2022-11-18T11:22:21.582Z,25.60
2022-11-18T11:24:21.579Z,25.65
2022-11-18T11:28:21.627Z,25.54
2022-11-18T11:30:21.662Z,25.53
2022-11-18T11:32:21.551Z,25.61
2022-11-18T11:34:21.513Z,25.77
2022-11-18T11:36:21.600Z,25.86
2022-11-18T11:38:21.523Z,25.75
2022-11-18T11:40:21.509Z,25.83
2022-11-18T11:42:21.591Z,25.86
2022-11-18T11:44:21.595Z,25.80
2022-11-18T11:46:21.580Z,25.75
2022-11-18T11:48:21.483Z,25.94
2022-11-18T11:50:21.628Z,25.82
2022-11-18T11:52:21.631Z,25.77
2022-11-18T11:54:21.610Z,25.52
2022-11-18T11:56:22.877Z,25.54
2022-11-18T11:58:21.625Z,25.52
2022-11-18T12:00:21.611Z,25.52
2022-11-18T12:02:21.693Z,25.80
2022-11-18T12:04:21.629Z,25.82
2022-11-18T12:06:21.529Z,25.85
2022-11-18T12:08:21.630Z,25.83
2022-11-18T12:10:21.598Z,25.55
2022-11-18T12:12:21.626Z,25.40
2022-11-18T12:14:21.638Z,25.50
2022-11-18T12:16:21.641Z,25.36
2022-11-18T12:18:21.529Z,25.36
2022-11-18T12:20:21.615Z,25.38
2022-11-18T12:22:21.541Z,25.49
2022-11-18T12:24:21.503Z,25.44
2022-11-18T12:26:21.556Z,25.49
2022-11-18T12:28:21.660Z,25.74
2022-11-18T12:30:21.502Z,25.80
2022-11-18T12:32:21.623Z,25.93
2022-11-18T12:34:21.660Z,25.85
2022-11-18T12:36:21.656Z,25.72
2022-11-18T12:38:21.652Z,25.47
2022-11-18T12:40:21.696Z,25.37
2022-11-18T12:42:21.620Z,25.37
2022-11-18T12:44:21.554Z,25.39
2022-11-18T12:46:21.672Z,25.60
2022-11-18T12:48:26.736Z,25.65
2022-11-18T12:50:21.682Z,25.72
2022-11-18T12:52:21.671Z,25.76
2022-11-18T12:54:21.684Z,25.63
2022-11-18T12:56:21.561Z,25.57
2022-11-18T12:58:21.615Z,25.33
2022-11-18T13:00:21.514Z,25.33
2022-11-18T13:02:21.659Z,25.45
2022-11-18T13:04:21.648Z,25.46
2022-11-18T13:06:21.723Z,25.50
2022-11-18T13:08:21.713Z,25.38
2022-11-18T13:10:21.649Z,25.43
2022-11-18T13:12:21.721Z,25.42
2022-11-18T13:14:21.700Z,25.44
2022-11-18T13:16:21.708Z,25.52
2022-11-18T13:18:21.616Z,25.83
2022-11-18T13:20:21.658Z,25.84
2022-11-18T13:22:21.524Z,25.92
2022-11-18T13:24:21.679Z,25.85
2022-11-18T13:26:21.554Z,25.83
2022-11-18T13:28:21.633Z,25.63
2022-11-18T13:30:21.723Z,25.74
2022-11-18T13:32:21.694Z,25.56
2022-11-18T13:34:21.714Z,25.61
2022-11-18T13:36:21.714Z,25.44
2022-11-18T13:38:27.442Z,25.50
2022-11-18T13:40:21.598Z,25.51
2022-11-18T13:42:21.571Z,25.55
2022-11-18T13:44:21.702Z,25.79
2022-11-18T13:46:21.727Z,25.85
2022-11-18T13:48:21.682Z,25.93
2022-11-18T13:50:21.727Z,25.89
2022-11-18T13:52:21.633Z,25.86
2022-11-18T13:54:21.699Z,25.82
2022-11-18T13:56:21.779Z,25.86
2022-11-18T13:58:21.748Z,25.65
2022-11-18T14:00:21.745Z,25.53
2022-11-18T14:02:21.815Z,25.52
2022-11-18T14:04:21.673Z,25.44
2022-11-18T14:06:21.707Z,25.47
2022-11-18T14:08:21.762Z,25.52
2022-11-18T14:10:21.661Z,25.53
2022-11-18T14:12:21.653Z,25.45
2022-11-18T14:14:21.674Z,25.37
2022-11-18T14:16:21.769Z,25.19
2022-11-18T14:18:21.783Z,25.03
2022-11-18T14:20:21.749Z,25.07
2022-11-18T14:22:21.781Z,25.08
2022-11-18T14:24:21.721Z,25.07
2022-11-18T14:26:21.781Z,25.09
2022-11-18T14:28:21.810Z,25.04
2022-11-18T14:30:21.767Z,25.00
2022-11-18T14:32:21.694Z,25.09
2022-11-18T14:34:21.803Z,25.00
2022-11-18T14:36:21.727Z,24.99
2022-11-18T14:38:38.421Z,24.95
2022-11-18T14:40:21.812Z,24.95
2022-11-18T14:42:21.815Z,24.92
2022-11-18T14:44:21.787Z,24.94
2022-11-18T14:46:21.785Z,24.95
2022-11-18T14:48:21.858Z,25.08
2022-11-18T14:50:21.806Z,25.11
2022-11-18T14:52:21.813Z,25.22
2022-11-18T14:54:26.461Z,25.20
2022-11-18T14:56:21.838Z,25.26
2022-11-18T14:58:21.819Z,25.52
2022-11-18T15:00:21.816Z,26.04
2022-11-18T15:02:21.806Z,25.97
2022-11-18T15:04:21.980Z,25.80
2022-11-18T15:06:21.787Z,25.52
2022-11-18T15:08:21.923Z,25.33
2022-11-18T15:10:21.806Z,25.23
2022-11-18T15:12:21.881Z,25.13
2022-11-18T15:14:22.096Z,25.11
2022-11-18T15:16:21.733Z,25.03
2022-11-18T15:18:21.759Z,25.10
2022-11-18T15:20:21.747Z,25.01
2022-11-18T15:22:21.818Z,25.08
2022-11-18T15:24:21.822Z,25.00
2022-11-18T15:26:21.859Z,24.96
2022-11-18T15:28:21.841Z,24.93
2022-11-18T15:30:21.740Z,24.79
2022-11-18T15:32:21.848Z,24.85
2022-11-18T15:34:22.066Z,24.82
2022-11-18T15:36:21.851Z,24.78
2022-11-18T15:38:21.858Z,24.69
2022-11-18T15:40:21.850Z,24.66
2022-11-18T15:42:23.532Z,24.66
2022-11-18T15:44:22.169Z,24.65
2022-11-18T15:46:21.838Z,24.65
2022-11-18T15:48:21.853Z,24.62
2022-11-18T15:50:21.855Z,24.62
2022-11-18T15:52:21.862Z,24.61
2022-11-18T15:54:21.977Z,24.54
2022-11-18T15:56:21.746Z,24.52
2022-11-18T15:58:21.900Z,24.55
2022-11-18T16:00:21.866Z,24.52
2022-11-18T16:02:21.888Z,24.60
2022-11-18T16:04:22.139Z,24.52
2022-11-18T16:06:21.880Z,24.52
2022-11-18T16:08:21.774Z,24.52
2022-11-18T16:10:21.896Z,27.55
2022-11-18T16:12:21.788Z,26.02
2022-11-18T16:14:22.192Z,26.08
2022-11-18T16:16:21.918Z,26.08
2022-11-18T16:18:21.932Z,26.11
2022-11-18T16:20:21.964Z,26.08
2022-11-18T16:22:21.895Z,26.07
2022-11-18T16:24:22.061Z,26.08
2022-11-18T16:26:21.780Z,26.08
2022-11-18T16:28:21.898Z,26.10
2022-11-18T16:30:21.904Z,26.08
2022-11-18T16:32:21.834Z,26.07
2022-11-18T16:34:21.995Z,26.07
2022-11-18T16:36:21.913Z,26.07
2022-11-18T16:38:21.940Z,26.07
2022-11-18T16:40:22.004Z,26.06
2022-11-18T16:42:21.753Z,26.07
2022-11-18T16:44:21.835Z,26.07
2022-11-18T16:46:21.899Z,26.06
2022-11-18T16:48:21.962Z,26.08
2022-11-18T16:50:21.839Z,26.08
2022-11-18T16:52:21.918Z,26.03
2022-11-18T16:54:21.853Z,26.12
2022-11-18T16:56:21.915Z,26.07
2022-11-18T16:58:21.915Z,26.08
2022-11-18T17:00:37.831Z,26.07
2022-11-18T17:02:22.033Z,26.04
2022-11-18T17:04:22.220Z,26.08
2022-11-18T17:06:21.943Z,26.11
2022-11-18T17:08:21.922Z,26.07
2022-11-18T17:10:21.905Z,26.14
2022-11-18T17:12:21.963Z,26.03
2022-11-18T17:14:21.905Z,26.03
2022-11-18T17:16:21.849Z,26.10
2022-11-18T17:18:21.985Z,26.03
2022-11-18T17:20:21.969Z,26.07
2022-11-18T17:22:21.907Z,26.07
2022-11-18T17:24:22.475Z,26.10
2022-11-18T17:26:21.943Z,26.08
2022-11-18T17:28:21.844Z,26.04
2022-11-18T17:30:21.920Z,26.08
2022-11-18T17:32:21.882Z,26.07
2022-11-18T17:34:22.264Z,26.04
2022-11-18T17:36:21.900Z,26.03
2022-11-18T17:38:21.911Z,26.04
2022-11-18T17:40:21.891Z,26.07
2022-11-18T17:42:21.908Z,25.81
2022-11-18T17:44:22.178Z,26.06
2022-11-18T17:46:23.028Z,26.04
2022-11-18T17:48:21.997Z,26.15
2022-11-18T17:50:21.994Z,26.08
2022-11-18T17:52:21.887Z,26.08
2022-11-18T17:54:22.369Z,26.07
2022-11-18T17:56:21.848Z,25.88
2022-11-18T17:58:22.011Z,26.14
2022-11-18T18:00:21.969Z,26.07
2022-11-18T18:02:21.845Z,26.03
2022-11-18T18:04:21.873Z,26.04
2022-11-18T18:06:21.888Z,26.04
2022-11-18T18:08:22.013Z,26.06
2022-11-18T18:10:22.036Z,26.08
2022-11-18T18:12:21.988Z,26.08
2022-11-18T18:14:21.982Z,26.09
2022-11-18T18:16:22.092Z,26.10
2022-11-18T18:18:22.050Z,26.08
2022-11-18T18:20:22.020Z,26.08
2022-11-18T18:22:21.937Z,26.08
2022-11-18T18:24:22.364Z,26.10
2022-11-18T18:26:26.644Z,26.05
2022-11-18T18:28:22.025Z,26.04
2022-11-18T18:30:21.941Z,26.02
2022-11-18T18:32:22.029Z,26.03
2022-11-18T18:34:22.213Z,26.06
2022-11-18T18:36:22.001Z,25.99
2022-11-18T18:38:21.888Z,26.00
2022-11-18T18:40:22.041Z,26.06
2022-11-18T18:42:22.057Z,26.07
2022-11-18T18:44:22.267Z,26.07
2022-11-18T18:46:22.099Z,26.08
2022-11-18T18:48:21.902Z,26.08
2022-11-18T18:50:28.214Z,26.04
2022-11-18T18:52:22.047Z,26.07
2022-11-18T18:54:22.263Z,26.08
2022-11-18T18:56:22.085Z,26.08
2022-11-18T18:58:22.054Z,26.04
2022-11-18T19:00:22.055Z,26.07
2022-11-18T19:02:22.071Z,26.08
2022-11-18T19:04:22.286Z,26.08
2022-11-18T19:06:56.827Z,26.07
2022-11-18T19:08:22.081Z,26.09
2022-11-18T19:10:22.068Z,26.04
2022-11-18T19:12:21.912Z,26.07
2022-11-18T19:14:22.030Z,26.13
2022-11-18T19:16:22.085Z,26.09
2022-11-18T19:18:22.065Z,26.09
2022-11-18T19:20:21.982Z,26.14
2022-11-18T19:22:22.125Z,26.08
2022-11-18T19:24:47.639Z,26.08
2022-11-18T19:26:21.992Z,26.17
2022-11-18T19:28:22.101Z,26.03
2022-11-18T19:30:22.086Z,26.09
2022-11-18T19:32:22.110Z,26.08
2022-11-18T19:34:22.120Z,26.00
2022-11-18T19:36:22.066Z,26.08
2022-11-18T19:38:22.070Z,26.08
2022-11-18T19:40:22.098Z,26.08
2022-11-18T19:42:22.080Z,26.07
2022-11-18T19:44:22.019Z,26.09
2022-11-18T19:46:22.051Z,26.08
2022-11-18T19:48:22.056Z,26.02
2022-11-18T19:50:22.100Z,26.00
2022-11-18T19:52:22.119Z,26.14
2022-11-18T19:54:22.031Z,26.08
2022-11-18T19:56:22.058Z,26.08
2022-11-18T19:58:22.201Z,26.08
2022-11-18T20:00:21.935Z,26.08
2022-11-18T20:02:22.016Z,26.08
2022-11-18T20:04:22.033Z,26.04
2022-11-18T20:06:22.154Z,26.06
2022-11-18T20:08:22.068Z,26.08
2022-11-18T20:10:22.190Z,26.02
2022-11-18T20:12:22.144Z,26.08
2022-11-18T20:14:22.098Z,26.08
2022-11-18T20:16:22.019Z,26.16
2022-11-18T20:18:21.997Z,26.08
2022-11-18T20:20:22.106Z,26.08
2022-11-18T20:22:22.127Z,26.08
2022-11-18T20:24:22.085Z,26.07
2022-11-18T20:26:22.158Z,26.09
2022-11-18T20:28:21.996Z,26.08
2022-11-18T20:30:22.293Z,26.11
2022-11-18T20:32:22.151Z,26.11
2022-11-18T20:34:22.168Z,26.08
2022-11-18T20:36:22.176Z,26.08
2022-11-18T20:38:22.141Z,26.09
2022-11-18T20:40:22.174Z,26.14
2022-11-18T20:42:22.345Z,26.14
2022-11-18T20:44:22.186Z,26.07
2022-11-18T20:46:22.163Z,26.08
2022-11-18T20:48:22.200Z,26.07
2022-11-18T20:50:22.133Z,26.09
2022-11-18T20:52:22.019Z,26.06
2022-11-18T20:54:22.154Z,26.10
2022-11-18T20:56:22.165Z,26.06
2022-11-18T20:58:22.190Z,26.08
2022-11-18T21:00:22.063Z,26.08
2022-11-18T21:02:22.123Z,26.08
2022-11-18T21:04:22.240Z,26.08
2022-11-18T21:06:22.237Z,26.04
2022-11-18T21:08:22.113Z,26.07
2022-11-18T21:10:22.236Z,26.08
2022-11-18T21:12:22.194Z,26.07
2022-11-18T21:14:24.464Z,26.11
2022-11-18T21:16:22.184Z,26.08
2022-11-18T21:18:22.208Z,26.07
2022-11-18T21:20:22.198Z,26.11
2022-11-18T21:22:22.133Z,26.08
2022-11-18T21:24:22.153Z,26.14
2022-11-18T21:26:22.244Z,26.07
2022-11-18T21:28:22.186Z,26.16
2022-11-18T21:30:22.230Z,26.06
2022-11-18T21:32:22.239Z,26.04
2022-11-18T21:34:22.196Z,26.06
2022-11-18T21:36:22.358Z,26.07
2022-11-18T21:38:22.346Z,26.07
2022-11-18T21:40:22.246Z,26.10
2022-11-18T21:42:22.083Z,26.04
2022-11-18T21:44:22.253Z,26.09
2022-11-18T21:46:22.110Z,26.13
2022-11-18T21:48:22.275Z,25.97
2022-11-18T21:50:22.250Z,26.09
2022-11-18T21:52:22.139Z,26.12
2022-11-18T21:54:22.159Z,26.04
2022-11-18T21:56:22.138Z,26.16
2022-11-18T21:58:22.249Z,26.08
2022-11-18T22:00:22.275Z,26.08
2022-11-18T22:02:22.257Z,25.99
2022-11-18T22:04:22.325Z,26.08
2022-11-18T22:06:22.145Z,26.00
2022-11-18T22:08:22.157Z,26.02
2022-11-18T22:10:22.170Z,26.03
2022-11-18T22:12:22.270Z,26.08
2022-11-18T22:14:22.184Z,26.07
2022-11-18T22:16:22.425Z,26.08
2022-11-18T22:18:22.250Z,25.97
2022-11-18T22:20:22.263Z,26.08
2022-11-18T22:22:22.264Z,26.07
2022-11-18T22:24:22.279Z,26.07
2022-11-18T22:26:22.337Z,25.96
2022-11-18T22:28:22.192Z,25.99
2022-11-18T22:30:22.304Z,26.08
2022-11-18T22:32:22.396Z,26.00
2022-11-18T22:34:22.127Z,26.04
2022-11-18T22:36:22.300Z,26.07
2022-11-18T22:38:22.221Z,26.07
2022-11-18T22:40:22.270Z,25.95
2022-11-18T22:42:22.316Z,26.04
2022-11-18T22:44:22.267Z,25.99
2022-11-18T22:46:22.272Z,26.04
2022-11-18T22:48:22.307Z,26.02
2022-11-18T22:50:22.219Z,25.99
2022-11-18T22:52:22.318Z,26.04
2022-11-18T22:54:38.437Z,26.08
2022-11-18T22:56:22.293Z,25.99
2022-11-18T22:58:22.332Z,25.95
2022-11-18T23:00:22.317Z,26.03
2022-11-18T23:02:22.236Z,26.07
2022-11-18T23:04:22.349Z,26.06
2022-11-18T23:06:22.293Z,26.08
2022-11-18T23:08:22.369Z,26.08
2022-11-18T23:10:22.293Z,25.99
2022-11-18T23:12:22.357Z,25.93
2022-11-18T23:14:22.355Z,26.02
2022-11-18T23:16:22.292Z,25.99
2022-11-18T23:18:22.343Z,25.93
2022-11-18T23:20:22.331Z,25.95
2022-11-18T23:22:22.315Z,25.93
2022-11-18T23:24:22.357Z,25.90
2022-11-18T23:26:22.336Z,25.98
2022-11-18T23:28:22.254Z,25.80
2022-11-18T23:30:22.219Z,25.80
2022-11-18T23:32:22.154Z,25.90
2022-11-18T23:34:22.347Z,25.99
2022-11-18T23:36:22.290Z,25.99
2022-11-18T23:38:22.314Z,26.00
2022-11-18T23:40:22.374Z,25.94
2022-11-18T23:42:22.321Z,25.95
2022-11-18T23:44:22.373Z,25.93
2022-11-18T23:46:22.381Z,25.92
2022-11-18T23:48:22.370Z,25.99
2022-11-18T23:50:22.444Z,26.06
2022-11-18T23:52:22.351Z,25.96
2022-11-18T23:54:22.385Z,26.03
2022-11-18T23:56:22.289Z,25.99
2022-11-18T23:58:22.402Z,26.07
